Time,TemperatureF,DewpointF,PressureIn,WindDirection,WindDirectionDegrees,WindSpeedMPH,WindSpeedGustMPH,Humidity,HourlyPrecipIn,Conditions,Clouds,dailyrainin,SoftwareType,DateUTC
2013-12-21 00:05:00,49.8,49.8,30.00,NNE,17,0.0,0.0,100,0.00,,,0.43,Wunderground v.1.15,2013-12-21 08:05:00,
2013-12-21 00:35:00,49.8,49.8,29.99,NNE,17,0.0,0.0,100,0.00,,,0.00,Wunderground v.1.15,2013-12-21 08:35:00,
2013-12-21 01:05:00,49.8,49.8,29.99,NNE,17,0.0,0.0,100,0.00,,,0.00,Wunderground v.1.15,2013-12-21 09:05:00,
2013-12-21 01:35:00,49.8,49.8,29.99,NNE,17,0.0,0.0,100,0.00,,,0.01,Wunderground v.1.15,2013-12-21 09:35:00,
2013-12-21 02:05:00,49.8,49.8,30.00,NNE,17,0.0,0.0,100,0.00,,,0.02,Wunderground v.1.15,2013-12-21 10:05:00,
2013-12-21 02:35:00,49.8,49.8,30.00,NNE,17,0.0,0.0,100,0.00,,,0.02,Wunderground v.1.15,2013-12-21 10:35:00,
2013-12-21 03:05:00,49.6,49.6,30.01,NNE,17,0.0,0.0,100,0.00,,,0.02,Wunderground v.1.15,2013-12-21 11:05:00,
2013-12-21 03:35:00,49.5,49.5,30.01,NNE,17,0.0,0.0,100,0.00,,,0.03,Wunderground v.1.15,2013-12-21 11:35:00,
2013-12-21 04:05:00,49.5,49.5,30.02,NNE,17,0.0,0.0,100,0.00,,,0.04,Wunderground v.1.15,2013-12-21 12:05:00,
2013-12-21 04:35:00,49.2,49.2,30.02,NNE,17,0.0,0.0,100,0.00,,,0.04,Wunderground v.1.15,2013-12-21 12:35:00,
2013-12-21 05:05:00,49.2,49.2,30.03,NNE,17,0.0,0.0,100,0.00,,,0.05,Wunderground v.1.15,2013-12-21 13:05:00,
2013-12-21 05:35:00,49.2,49.2,30.04,NNE,17,0.0,0.0,100,0.00,,,0.06,Wunderground v.1.15,2013-12-21 13:35:00,
2013-12-21 06:05:00,49.1,49.1,30.04,NNE,17,0.0,0.0,100,0.00,,,0.06,Wunderground v.1.15,2013-12-21 14:05:00,
2013-12-21 06:35:00,49.1,49.1,30.06,NNE,17,0.0,0.0,100,0.00,,,0.06,Wunderground v.1.15,2013-12-21 14:35:00,
2013-12-21 07:05:00,48.8,48.8,30.07,NNE,17,0.0,0.0,100,0.00,,,0.06,Wunderground v.1.15,2013-12-21 15:05:00,
2013-12-21 07:35:00,48.8,48.8,30.08,NNE,17,0.0,0.0,100,0.00,,,0.06,Wunderground v.1.15,2013-12-21 15:35:00,
2013-12-21 08:05:00,48.6,48.6,30.08,NNE,17,0.0,0.0,100,0.00,,,0.06,Wunderground v.1.15,2013-12-21 16:05:00,
2013-12-21 08:35:00,48.8,48.8,30.10,NNE,17,0.0,0.0,100,0.00,,,0.07,Wunderground v.1.15,2013-12-21 16:35:00,
2013-12-21 09:05:00,49.2,49.2,30.11,NNE,17,0.0,0.0,100,0.00,,,0.07,Wunderground v.1.15,2013-12-21 17:05:00,
2013-12-21 09:35:00,49.4,49.4,30.12,NNE,17,0.0,0.0,100,0.00,,,0.07,Wunderground v.1.15,2013-12-21 17:35:00,
2013-12-21 10:05:00,49.5,49.5,30.13,NNE,17,0.0,0.0,100,0.00,,,0.07,Wunderground v.1.15,2013-12-21 18:05:00,
2013-12-21 10:35:00,49.8,49.8,30.14,NNE,17,0.0,0.0,100,0.00,,,0.07,Wunderground v.1.15,2013-12-21 18:35:00,
2013-12-21 11:05:00,50.1,50.1,30.14,NNE,17,0.0,0.0,100,0.00,,,0.07,Wunderground v.1.15,2013-12-21 19:05:00,
2013-12-21 11:35:00,51.1,51.1,30.15,NNE,17,0.0,0.0,100,0.00,,,0.07,Wunderground v.1.15,2013-12-21 19:35:00,
2013-12-21 12:05:00,50.5,50.5,30.14,NNE,17,0.0,0.0,100,0.00,,,0.08,Wunderground v.1.15,2013-12-21 20:05:00,
2013-12-21 12:35:00,50.2,50.2,30.14,NNE,17,0.0,0.0,100,0.00,,,0.08,Wunderground v.1.15,2013-12-21 20:35:00,
2013-12-21 13:05:00,50.2,50.2,30.14,NNE,17,0.0,0.0,100,0.00,,,0.08,Wunderground v.1.15,2013-12-21 21:05:00,
2013-12-21 13:35:00,49.9,49.9,30.14,NNE,17,0.0,0.0,100,0.00,,,0.08,Wunderground v.1.15,2013-12-21 21:35:00,
2013-12-21 14:05:00,49.4,49.4,30.14,NNE,17,0.0,0.0,100,0.00,,,0.08,Wunderground v.1.15,2013-12-21 22:05:00,
2013-12-21 14:35:00,49.2,49.2,30.14,NNE,17,0.0,0.0,100,0.00,,,0.08,Wunderground v.1.15,2013-12-21 22:35:00,
2013-12-21 15:05:00,49.4,49.4,30.14,NNE,17,0.0,0.0,100,0.00,,,0.08,Wunderground v.1.15,2013-12-21 23:05:00,
2013-12-21 15:35:00,48.9,48.9,30.15,NNE,17,0.0,0.0,100,0.00,,,0.08,Wunderground v.1.15,2013-12-21 23:35:00,
2013-12-21 16:05:00,49.1,49.1,30.17,NNE,17,0.0,0.0,100,0.00,,,0.08,Wunderground v.1.15,2013-12-22 00:05:00,
2013-12-21 16:35:00,48.9,48.9,30.17,NNE,17,0.0,0.0,100,0.00,,,0.08,Wunderground v.1.15,2013-12-22 00:35:00,
2013-12-21 17:05:00,48.0,48.0,30.16,NNE,17,0.0,0.0,100,0.00,,,0.08,Wunderground v.1.15,2013-12-22 01:05:00,
2013-12-21 17:35:00,47.7,47.7,30.18,NNE,17,0.0,0.0,100,0.00,,,0.08,Wunderground v.1.15,2013-12-22 01:35:00,
2013-12-21 18:05:00,47.0,47.0,30.19,NNE,17,0.0,0.0,100,0.00,,,0.08,Wunderground v.1.15,2013-12-22 02:05:00,
2013-12-21 18:35:00,46.0,46.0,30.21,NNE,17,0.0,0.0,100,0.00,,,0.08,Wunderground v.1.15,2013-12-22 02:35:00,
2013-12-21 19:05:00,46.0,46.0,30.22,NNE,17,0.0,0.0,100,0.00,,,0.08,Wunderground v.1.15,2013-12-22 03:05:00,
2013-12-21 19:35:00,46.4,46.4,30.19,NNE,17,0.0,0.0,100,0.00,,,0.08,Wunderground v.1.15,2013-12-22 03:35:00,
2013-12-21 20:05:00,46.4,46.4,30.20,NNE,17,0.0,0.0,100,0.00,,,0.08,Wunderground v.1.15,2013-12-22 04:05:00,
2013-12-21 20:35:00,46.2,46.2,30.21,NNE,17,0.0,0.0,100,0.00,,,0.08,Wunderground v.1.15,2013-12-22 04:35:00,
2013-12-21 21:05:00,46.1,46.1,30.22,NNE,17,0.0,0.0,100,0.00,,,0.08,Wunderground v.1.15,2013-12-22 05:05:00,
2013-12-21 21:35:00,46.0,46.0,30.22,NNE,17,0.0,0.0,100,0.00,,,0.08,Wunderground v.1.15,2013-12-22 05:35:00,
2013-12-21 22:05:00,45.8,45.8,30.22,NNE,17,0.0,0.0,100,0.00,,,0.08,Wunderground v.1.15,2013-12-22 06:05:00,
2013-12-21 22:35:00,45.7,45.7,30.22,NNE,17,0.0,0.0,100,0.00,,,0.08,Wunderground v.1.15,2013-12-22 06:35:00,
2013-12-21 23:05:00,45.7,45.7,30.22,NNE,17,0.0,0.0,100,0.00,,,0.08,Wunderground v.1.15,2013-12-22 07:05:00,
2013-12-21 23:35:00,45.4,45.4,30.23,NNE,17,0.0,0.0,100,0.00,,,0.08,Wunderground v.1.15,2013-12-22 07:35:00,